createdAt,value
2018-05-13T00:02:12.109Z,8.20
2018-05-13T00:04:39.682Z,8.60
2018-05-13T00:07:07.294Z,7.90
2018-05-13T00:09:34.937Z,8.50
2018-05-13T00:12:02.539Z,8.33
2018-05-13T00:14:30.110Z,9.10
2018-05-13T00:16:57.715Z,8.30
2018-05-13T00:19:25.273Z,8.00
2018-05-13T00:21:52.893Z,8.23
2018-05-13T00:24:20.442Z,8.87
2018-05-13T00:26:48.075Z,9.03
2018-05-13T00:29:15.721Z,8.80
2018-05-13T00:31:43.361Z,9.80
2018-05-13T00:34:10.968Z,9.00
2018-05-13T00:36:39.300Z,9.20
2018-05-13T00:39:06.878Z,9.27
2018-05-13T00:41:34.442Z,9.40
2018-05-13T00:44:02.058Z,9.70
2018-05-13T00:46:29.610Z,9.93
2018-05-13T00:48:57.255Z,10.07
2018-05-13T00:51:25.620Z,10.10
2018-05-13T00:53:54.046Z,10.50
2018-05-13T00:56:21.646Z,11.70
2018-05-13T00:58:49.286Z,12.27
2018-05-13T01:01:16.855Z,11.47
2018-05-13T01:03:44.479Z,11.00
2018-05-13T01:06:12.033Z,10.10
2018-05-13T01:08:39.619Z,10.50
2018-05-13T01:11:07.191Z,9.80
2018-05-13T01:13:34.767Z,10.63
2018-05-13T01:16:02.406Z,10.43
2018-05-13T01:18:30.091Z,9.93
2018-05-13T01:20:57.684Z,10.60
2018-05-13T01:23:25.258Z,10.73
2018-05-13T01:25:52.865Z,9.93
2018-05-13T01:28:20.470Z,10.17
2018-05-13T01:30:52.634Z,9.90
2018-05-13T01:33:20.210Z,9.93
2018-05-13T01:35:47.846Z,10.23
2018-05-13T01:38:16.232Z,9.70
2018-05-13T01:40:43.794Z,9.90
2018-05-13T01:43:12.059Z,8.90
2018-05-13T01:45:40.348Z,9.00
2018-05-13T01:48:07.885Z,8.30
2018-05-13T01:50:36.191Z,8.10
2018-05-13T01:53:03.790Z,8.30
2018-05-13T01:55:31.326Z,8.30
2018-05-13T01:57:58.903Z,7.90
2018-05-13T02:00:26.395Z,7.37
2018-05-13T02:02:53.895Z,6.80
2018-05-13T02:05:21.455Z,7.10
2018-05-13T02:07:49.006Z,7.57
2018-05-13T02:10:16.579Z,7.20
2018-05-13T02:12:44.089Z,6.97
2018-05-13T02:15:11.681Z,6.57
2018-05-13T02:17:39.173Z,6.97
2018-05-13T02:20:06.701Z,6.60
2018-05-13T02:22:34.201Z,7.20
2018-05-13T02:25:01.724Z,6.80
2018-05-13T02:27:29.228Z,6.60
2018-05-13T02:29:56.754Z,6.97
2018-05-13T02:32:24.322Z,6.40
2018-05-13T02:34:51.833Z,6.80
2018-05-13T02:37:20.197Z,6.60
2018-05-13T02:39:48.518Z,6.00
2018-05-13T02:42:16.644Z,6.73
2018-05-13T02:44:44.921Z,6.67
2018-05-13T02:47:12.464Z,6.87
2018-05-13T02:49:40.645Z,7.07
2018-05-13T02:52:08.223Z,7.17
2018-05-13T02:54:36.540Z,7.30
2018-05-13T02:57:04.075Z,8.00
2018-05-13T02:59:31.618Z,8.27
2018-05-13T03:01:59.182Z,7.60
2018-05-13T03:04:27.509Z,7.90
2018-05-13T03:06:55.041Z,8.23
2018-05-13T03:09:22.607Z,8.00
2018-05-13T03:11:50.142Z,7.80
2018-05-13T03:14:17.679Z,7.30
2018-05-13T03:16:45.233Z,7.90
2018-05-13T03:19:12.746Z,7.80
2018-05-13T03:21:41.056Z,8.10
2018-05-13T03:24:08.567Z,7.30
2018-05-13T03:26:36.085Z,7.50
2018-05-13T03:29:03.591Z,8.47
2018-05-13T03:31:31.130Z,6.97
2018-05-13T03:33:59.475Z,7.60
2018-05-13T03:36:27.022Z,7.60
2018-05-13T03:38:54.547Z,7.73
2018-05-13T03:41:22.088Z,8.20
2018-05-13T03:43:49.638Z,7.90
2018-05-13T03:46:17.920Z,7.47
2018-05-13T03:48:46.206Z,6.87
2018-05-13T03:51:13.724Z,7.60
2018-05-13T03:53:41.296Z,7.57
2018-05-13T03:56:09.560Z,6.73
2018-05-13T03:58:37.098Z,7.00
2018-05-13T04:01:04.601Z,6.33
2018-05-13T04:03:32.893Z,6.70
2018-05-13T04:06:00.422Z,6.60
2018-05-13T04:08:49.293Z,6.70
2018-05-13T04:11:29.251Z,6.70
2018-05-13T04:14:09.532Z,6.50
2018-05-13T04:16:37.049Z,6.83
2018-05-13T04:19:04.577Z,7.30
2018-05-13T04:21:32.140Z,6.93
2018-05-13T04:23:59.657Z,7.00
2018-05-13T04:26:27.198Z,7.27
2018-05-13T04:28:54.794Z,7.10
2018-05-13T04:31:22.372Z,6.40
2018-05-13T04:33:49.893Z,6.53
2018-05-13T04:36:17.425Z,6.63
2018-05-13T04:38:45.769Z,7.60
2018-05-13T04:41:13.273Z,7.20
2018-05-13T04:43:40.805Z,7.30
2018-05-13T04:46:08.321Z,7.00
2018-05-13T04:48:35.924Z,7.53
2018-05-13T04:51:03.431Z,7.10
2018-05-13T04:53:30.959Z,7.50
2018-05-13T04:55:58.479Z,7.80
2018-05-13T04:58:26.023Z,8.07
2018-05-13T05:00:53.546Z,7.23
2018-05-13T05:03:21.064Z,7.23
2018-05-13T05:05:48.605Z,7.60
2018-05-13T05:08:16.109Z,8.10
2018-05-13T05:10:43.656Z,7.30
2018-05-13T05:13:11.944Z,7.10
2018-05-13T05:15:39.467Z,6.90
2018-05-13T05:18:08.605Z,6.87
2018-05-13T05:20:56.809Z,6.97
2018-05-13T05:26:30.502Z,6.90
2018-05-13T05:28:58.025Z,6.70
2018-05-13T05:31:26.297Z,6.30
2018-05-13T05:33:54.548Z,6.30
2018-05-13T05:36:22.072Z,6.60
2018-05-13T05:38:49.552Z,6.73
2018-05-13T05:41:17.126Z,6.20
2018-05-13T05:43:44.647Z,6.63
2018-05-13T05:46:24.844Z,6.87
2018-05-13T05:48:52.418Z,6.20
2018-05-13T05:51:20.697Z,6.50
2018-05-13T05:56:52.135Z,6.10
2018-05-13T05:59:31.930Z,6.63
2018-05-13T06:01:59.461Z,6.10
2018-05-13T06:04:26.977Z,6.57
2018-05-13T06:06:54.513Z,6.23
2018-05-13T06:09:22.028Z,5.93
2018-05-13T06:11:49.549Z,6.37
2018-05-13T06:14:17.056Z,6.23
2018-05-13T06:16:44.556Z,5.73
2018-05-13T06:19:35.652Z,6.10
2018-05-13T06:22:03.185Z,6.40
2018-05-13T06:24:30.761Z,6.30
2018-05-13T06:26:59.029Z,5.70
2018-05-13T06:29:27.345Z,5.37
2018-05-13T06:31:54.936Z,5.80
2018-05-13T06:34:23.128Z,5.80
2018-05-13T06:36:51.420Z,5.33
2018-05-13T06:39:18.931Z,5.70
2018-05-13T06:41:46.433Z,5.10
2018-05-13T06:44:14.738Z,6.60
2018-05-13T06:46:42.285Z,5.47
2018-05-13T06:49:09.809Z,5.50
2018-05-13T06:51:37.371Z,6.10
2018-05-13T06:54:04.893Z,5.90
2018-05-13T06:56:32.431Z,5.80
2018-05-13T06:58:59.965Z,5.40
2018-05-13T07:01:28.245Z,5.60
2018-05-13T07:03:55.773Z,5.50
2018-05-13T07:06:23.313Z,5.50
2018-05-13T07:08:50.822Z,5.80
2018-05-13T07:11:19.118Z,5.77
2018-05-13T07:13:46.640Z,5.53
2018-05-13T07:16:14.160Z,5.50
2018-05-13T07:18:41.682Z,5.50
2018-05-13T07:21:09.238Z,5.43
2018-05-13T07:23:36.774Z,5.93
2018-05-13T07:26:22.207Z,5.57
2018-05-13T07:28:49.744Z,6.10
2018-05-13T07:40:19.238Z,5.37
2018-05-13T07:42:52.698Z,5.90
2018-05-13T07:45:20.227Z,5.37
2018-05-13T07:47:47.776Z,6.10
2018-05-13T07:50:15.304Z,5.80
2018-05-13T07:52:42.824Z,6.77
2018-05-13T07:55:11.119Z,6.00
2018-05-13T07:57:38.634Z,5.60
2018-05-13T08:00:06.142Z,6.00
2018-05-13T08:02:33.662Z,5.97
2018-05-13T08:05:14.034Z,5.50
2018-05-13T08:07:42.321Z,5.80
2018-05-13T08:10:09.849Z,5.57
2018-05-13T08:12:37.377Z,5.40
2018-05-13T08:15:04.979Z,5.33
2018-05-13T08:17:33.274Z,5.37
2018-05-13T08:20:00.762Z,5.50
2018-05-13T08:22:29.287Z,5.50
2018-05-13T08:24:56.790Z,6.77
2018-05-13T08:27:24.321Z,6.57
2018-05-13T08:29:52.707Z,5.93
2018-05-13T08:32:20.214Z,7.17
2018-05-13T08:34:47.748Z,5.60
2018-05-13T08:37:15.251Z,6.20
2018-05-13T08:39:42.773Z,6.10
2018-05-13T08:42:10.322Z,6.00
2018-05-13T08:44:37.831Z,6.33
2018-05-13T08:47:05.407Z,6.17
2018-05-13T08:49:33.696Z,7.27
2018-05-13T08:52:02.005Z,6.73
2018-05-13T08:54:29.571Z,6.57
2018-05-13T08:56:57.050Z,6.93
2018-05-13T08:59:24.584Z,6.70
2018-05-13T09:01:52.101Z,6.20
2018-05-13T09:04:20.371Z,6.50
2018-05-13T09:06:48.616Z,6.70
2018-05-13T09:09:16.173Z,6.30
2018-05-13T09:11:43.718Z,7.30
2018-05-13T09:14:11.385Z,7.37
2018-05-13T09:16:38.884Z,6.67
2018-05-13T09:19:07.133Z,7.50
2018-05-13T09:21:34.643Z,6.20
2018-05-13T09:24:02.164Z,6.20
2018-05-13T09:26:29.766Z,7.77
2018-05-13T09:28:57.219Z,7.20
2018-05-13T09:31:24.752Z,7.30
2018-05-13T09:33:53.191Z,8.00
2018-05-13T09:36:20.719Z,7.40
2018-05-13T09:38:48.251Z,7.33
2018-05-13T09:41:16.600Z,8.10
2018-05-13T09:43:44.134Z,8.93
2018-05-13T09:46:11.674Z,8.23
2018-05-13T09:48:39.221Z,8.03
2018-05-13T09:51:06.733Z,8.07
2018-05-13T09:53:34.297Z,7.80
2018-05-13T09:56:01.874Z,7.27
2018-05-13T09:58:30.232Z,7.40
2018-05-13T10:03:51.379Z,7.60
2018-05-13T10:06:18.877Z,7.33
2018-05-13T10:08:46.471Z,7.60
2018-05-13T10:11:13.970Z,6.90
2018-05-13T10:13:42.290Z,7.67
2018-05-13T10:16:09.824Z,7.30
2018-05-13T10:18:37.352Z,6.87
2018-05-13T10:21:04.892Z,9.57
2018-05-13T10:23:32.465Z,29.33
2018-05-13T10:26:00.775Z,8.10
2018-05-13T10:28:28.286Z,7.93
2018-05-13T10:30:55.797Z,8.47
2018-05-13T10:33:23.293Z,8.73
2018-05-13T10:35:50.832Z,8.80
2018-05-13T10:38:18.357Z,8.70
2018-05-13T10:40:46.647Z,8.20
2018-05-13T10:43:14.172Z,7.97
2018-05-13T10:45:42.449Z,8.93
2018-05-13T10:48:10.746Z,9.17
2018-05-13T10:50:41.237Z,8.80
2018-05-13T10:53:08.741Z,8.20
2018-05-13T10:55:36.250Z,8.00
2018-05-13T10:58:03.775Z,7.20
2018-05-13T11:00:31.297Z,6.33
2018-05-13T11:02:59.590Z,5.80
2018-05-13T11:05:46.728Z,6.60
2018-05-13T11:08:14.242Z,6.37
2018-05-13T11:10:41.806Z,7.60
2018-05-13T11:13:09.377Z,8.50
2018-05-13T11:15:36.932Z,7.00
2018-05-13T11:18:05.214Z,7.87
2018-05-13T11:20:32.789Z,8.53
2018-05-13T11:23:00.330Z,8.23
2018-05-13T11:25:27.869Z,9.50
2018-05-13T11:27:56.162Z,8.93
2018-05-13T11:30:48.387Z,9.80
2018-05-13T11:33:16.686Z,9.63
2018-05-13T11:35:44.272Z,10.90
2018-05-13T11:38:18.333Z,9.63
2018-05-13T11:40:46.668Z,10.37
2018-05-13T11:43:14.169Z,10.00
2018-05-13T11:45:42.450Z,10.87
2018-05-13T11:48:10.729Z,10.10
2018-05-13T11:50:44.661Z,9.97
2018-05-13T11:53:12.165Z,10.40
2018-05-13T11:55:39.650Z,9.87
2018-05-13T11:58:07.925Z,9.60
2018-05-13T12:00:36.258Z,10.47
2018-05-13T12:03:03.792Z,10.37
2018-05-13T12:05:31.308Z,10.70
2018-05-13T12:07:58.842Z,10.97
2018-05-13T12:13:20.329Z,10.80
2018-05-13T12:18:49.023Z,12.10
2018-05-13T12:21:16.554Z,10.93
2018-05-13T12:23:44.071Z,12.00
2018-05-13T12:26:11.556Z,12.27
2018-05-13T12:28:44.498Z,12.83
2018-05-13T12:31:11.992Z,12.70
2018-05-13T12:33:39.529Z,12.77
2018-05-13T12:36:07.095Z,13.00
2018-05-13T12:38:34.612Z,12.73
2018-05-13T12:41:02.942Z,13.83
2018-05-13T12:43:30.425Z,12.90
2018-05-13T12:45:57.962Z,13.13
2018-05-13T12:48:43.282Z,12.77
2018-05-13T12:51:11.642Z,14.50
2018-05-13T12:53:39.217Z,13.83
2018-05-13T12:56:07.549Z,15.40
2018-05-13T12:58:35.052Z,14.90
2018-05-13T13:01:05.684Z,14.47
2018-05-13T13:03:40.456Z,13.80
2018-05-13T13:06:07.988Z,14.77
2018-05-13T13:08:35.525Z,14.33
2018-05-13T13:11:03.106Z,15.50
2018-05-13T13:13:44.371Z,15.10
2018-05-13T13:16:12.653Z,16.90
2018-05-13T13:18:40.219Z,16.53
2018-05-13T13:21:07.739Z,16.20
2018-05-13T13:23:35.342Z,15.50
2018-05-13T13:26:02.962Z,16.93
2018-05-13T13:28:30.470Z,16.00
2018-05-13T13:30:57.994Z,16.57
2018-05-13T13:33:26.305Z,15.60
2018-05-13T13:35:53.939Z,15.80
2018-05-13T13:38:23.027Z,15.03
2018-05-13T13:41:07.736Z,14.97
2018-05-13T13:43:35.327Z,16.03
2018-05-13T13:46:02.851Z,14.43
2018-05-13T13:48:30.388Z,15.63
2018-05-13T13:51:14.894Z,16.97
2018-05-13T13:53:42.464Z,15.37
2018-05-13T13:56:10.004Z,16.00
2018-05-13T13:58:37.516Z,15.23
2018-05-13T14:01:05.769Z,16.47
2018-05-13T14:03:33.272Z,14.60
2018-05-13T14:06:00.770Z,16.57
2018-05-13T14:08:28.266Z,16.00
2018-05-13T14:10:56.544Z,17.10
2018-05-13T14:13:24.822Z,18.27
2018-05-13T14:15:53.137Z,18.57
2018-05-13T14:18:20.692Z,18.77
2018-05-13T14:20:48.239Z,16.87
2018-05-13T14:23:15.771Z,16.83
2018-05-13T14:25:44.106Z,15.50
2018-05-13T14:28:28.549Z,17.50
2018-05-13T14:30:56.170Z,16.53
2018-05-13T14:33:24.741Z,17.10
2018-05-13T14:35:53.557Z,16.50
2018-05-13T14:38:41.723Z,16.67
2018-05-13T14:41:09.375Z,17.27
2018-05-13T14:43:36.808Z,16.40
2018-05-13T14:46:04.344Z,15.23
2018-05-13T14:48:32.664Z,14.40
2018-05-13T14:51:00.159Z,14.50
2018-05-13T14:53:27.670Z,14.73
2018-05-13T14:55:55.170Z,14.60
2018-05-13T14:58:22.748Z,15.37
2018-05-13T15:01:01.149Z,15.80
2018-05-13T15:03:32.129Z,16.70
2018-05-13T15:05:59.672Z,16.80
2018-05-13T15:08:33.692Z,16.90
2018-05-13T15:11:16.497Z,17.00
2018-05-13T15:13:48.908Z,17.20
2018-05-13T15:16:16.433Z,16.57
2018-05-13T15:18:44.695Z,16.20
2018-05-13T15:21:12.239Z,15.30
2018-05-13T15:23:39.767Z,14.80
2018-05-13T15:26:07.307Z,15.87
2018-05-13T15:28:34.838Z,14.20
2018-05-13T15:31:03.134Z,14.80
2018-05-13T15:33:30.705Z,16.47
2018-05-13T15:35:58.206Z,16.10
2018-05-13T15:38:25.726Z,17.00
2018-05-13T15:40:53.246Z,16.13
2018-05-13T15:43:21.535Z,14.80
2018-05-13T15:45:49.085Z,15.03
2018-05-13T15:48:17.416Z,14.40
2018-05-13T15:50:44.982Z,14.43
2018-05-13T15:53:12.496Z,15.80
2018-05-13T15:55:40.002Z,16.23
2018-05-13T15:58:07.544Z,18.30
2018-05-13T16:00:35.089Z,18.63
2018-05-13T16:03:02.686Z,16.03
2018-05-13T16:05:30.226Z,16.70
2018-05-13T16:07:57.780Z,15.60
2018-05-13T16:10:25.318Z,15.73
2018-05-13T16:12:52.830Z,15.10
2018-05-13T16:15:20.372Z,16.17
2018-05-13T16:17:47.881Z,17.30
2018-05-13T16:20:15.402Z,16.97
2018-05-13T16:22:57.010Z,16.67
2018-05-13T16:25:24.560Z,15.43
2018-05-13T16:28:05.309Z,15.63
2018-05-13T16:30:32.895Z,15.77
2018-05-13T16:33:00.474Z,16.23
2018-05-13T16:35:34.017Z,17.47
2018-05-13T16:38:01.586Z,16.00
2018-05-13T16:40:29.129Z,15.80
2018-05-13T16:42:56.646Z,15.50
2018-05-13T16:45:28.096Z,13.97
2018-05-13T16:47:56.490Z,14.20
2018-05-13T16:50:24.019Z,16.00
2018-05-13T16:52:52.322Z,15.67
2018-05-13T16:55:19.869Z,14.73
2018-05-13T16:57:47.455Z,14.50
2018-05-13T17:00:15.033Z,15.43
2018-05-13T17:02:42.537Z,14.23
2018-05-13T17:05:10.833Z,14.53
2018-05-13T17:07:38.346Z,14.40
2018-05-13T17:10:05.925Z,16.50
2018-05-13T17:12:33.500Z,17.17
2018-05-13T17:15:01.052Z,16.03
2018-05-13T17:17:29.384Z,16.13
2018-05-13T17:19:56.919Z,16.13
2018-05-13T17:22:24.453Z,16.70
2018-05-13T17:24:52.743Z,15.73
2018-05-13T17:27:20.304Z,16.60
2018-05-13T17:29:47.862Z,16.40
2018-05-13T17:32:15.404Z,15.50
2018-05-13T17:34:43.698Z,16.47
2018-05-13T17:37:11.265Z,14.20
2018-05-13T17:39:39.591Z,15.87
2018-05-13T17:42:07.139Z,17.03
2018-05-13T17:44:49.386Z,15.50
2018-05-13T17:47:16.975Z,16.03
2018-05-13T17:49:44.618Z,16.10
2018-05-13T17:52:12.082Z,16.70
2018-05-13T17:54:40.614Z,16.87
2018-05-13T17:57:08.126Z,16.27
2018-05-13T18:02:30.835Z,16.40
2018-05-13T18:04:58.406Z,16.80
2018-05-13T18:07:25.976Z,16.00
2018-05-13T18:09:53.528Z,16.30
2018-05-13T18:12:21.090Z,15.97
2018-05-13T18:14:48.615Z,17.10
2018-05-13T18:17:16.225Z,16.03
2018-05-13T18:19:43.731Z,15.53
2018-05-13T18:22:11.305Z,15.77
2018-05-13T18:24:47.143Z,16.40
2018-05-13T18:27:40.441Z,15.50
2018-05-13T18:30:08.780Z,16.10
2018-05-13T18:32:36.435Z,16.70
2018-05-13T18:35:25.738Z,16.63
2018-05-13T18:37:53.302Z,18.23
2018-05-13T18:42:54.924Z,18.80
2018-05-13T18:45:23.497Z,18.93
2018-05-13T18:47:51.112Z,23.33
2018-05-13T18:50:21.747Z,25.10
2018-05-13T18:52:49.227Z,25.47
2018-05-13T18:55:17.531Z,25.03
2018-05-13T18:57:45.034Z,25.80
2018-05-13T19:00:17.130Z,25.97
2018-05-13T19:02:45.506Z,26.07
2018-05-13T19:05:13.788Z,24.93
2018-05-13T19:07:41.319Z,29.27
2018-05-13T19:10:08.900Z,28.73
2018-05-13T19:12:37.191Z,27.47
2018-05-13T19:15:04.770Z,29.07
2018-05-13T19:17:32.327Z,31.00
2018-05-13T19:19:59.886Z,31.00
2018-05-13T19:22:27.461Z,27.23
2018-05-13T19:24:55.071Z,30.03
2018-05-13T19:27:31.640Z,32.47
2018-05-13T19:29:59.967Z,30.50
2018-05-13T19:32:27.487Z,29.70
2018-05-13T19:35:06.316Z,29.90
2018-05-13T19:37:33.863Z,32.17
2018-05-13T19:40:02.160Z,31.30
2018-05-13T19:42:29.728Z,35.77
2018-05-13T19:45:08.199Z,31.23
2018-05-13T19:47:35.757Z,30.50
2018-05-13T19:50:03.439Z,31.17
2018-05-13T19:52:30.948Z,26.77
2018-05-13T19:54:58.471Z,32.90
2018-05-13T19:57:26.069Z,33.67
2018-05-13T19:59:53.593Z,29.80
2018-05-13T20:02:21.137Z,26.00
2018-05-13T20:04:48.730Z,29.70
2018-05-13T20:07:16.271Z,28.67
2018-05-13T20:09:43.905Z,25.17
2018-05-13T20:12:11.319Z,27.00
2018-05-13T20:14:38.846Z,21.83
2018-05-13T20:17:06.397Z,22.10
2018-05-13T20:19:33.942Z,22.20
2018-05-13T20:22:02.277Z,21.57
2018-05-13T20:24:29.838Z,19.10
2018-05-13T20:26:57.410Z,19.90
2018-05-13T20:29:24.944Z,19.03
2018-05-13T20:31:52.527Z,20.17
2018-05-13T20:34:20.115Z,20.10
2018-05-13T20:36:48.388Z,18.43
2018-05-13T20:39:16.721Z,13.33
2018-05-13T20:41:44.264Z,13.83
2018-05-13T20:44:11.927Z,12.80
2018-05-13T20:46:39.394Z,12.07
2018-05-13T20:49:06.915Z,11.53
2018-05-13T20:51:34.662Z,9.90
2018-05-13T20:54:02.951Z,10.17
2018-05-13T20:56:31.327Z,10.60
2018-05-13T20:58:58.864Z,11.03
2018-05-13T21:01:26.360Z,10.73
2018-05-13T21:03:53.925Z,14.00
2018-05-13T21:06:21.435Z,14.00
2018-05-13T21:08:48.975Z,15.40
2018-05-13T21:11:16.543Z,16.00
2018-05-13T21:13:44.137Z,18.50
2018-05-13T21:16:12.474Z,20.00
2018-05-13T21:18:39.957Z,20.00
2018-05-13T21:21:07.530Z,20.40
2018-05-13T21:23:35.061Z,21.13
2018-05-13T21:26:02.544Z,24.00
2018-05-13T21:28:30.881Z,22.93
2018-05-13T21:30:58.468Z,26.10
2018-05-13T21:33:25.971Z,28.07
2018-05-13T21:35:53.517Z,26.30
2018-05-13T21:38:21.041Z,28.07
2018-05-13T21:40:48.568Z,26.23
2018-05-13T21:43:16.147Z,26.97
2018-05-13T21:45:43.654Z,28.30
2018-05-13T21:48:11.222Z,28.20
2018-05-13T21:50:39.572Z,28.00
2018-05-13T21:53:07.089Z,27.70
2018-05-13T21:55:34.610Z,30.47
2018-05-13T21:58:02.132Z,30.47
2018-05-13T22:00:29.702Z,29.17
2018-05-13T22:02:57.234Z,28.40
2018-05-13T22:05:24.761Z,27.17
2018-05-13T22:07:52.292Z,28.07
2018-05-13T22:10:20.590Z,26.87
2018-05-13T22:12:48.133Z,26.53
2018-05-13T22:15:15.706Z,28.60
2018-05-13T22:17:43.231Z,26.60
2018-05-13T22:20:11.535Z,28.53
2018-05-13T22:22:39.053Z,26.23
2018-05-13T22:25:06.595Z,28.20
2018-05-13T22:27:34.131Z,24.87
2018-05-13T22:30:01.655Z,25.23
2018-05-13T22:32:29.174Z,26.77
2018-05-13T22:34:56.715Z,28.40
2018-05-13T22:37:25.044Z,26.37
2018-05-13T22:39:53.317Z,26.40
2018-05-13T22:42:20.848Z,28.50
2018-05-13T22:44:48.625Z,29.03
2018-05-13T22:47:16.203Z,28.77
2018-05-13T22:49:43.792Z,31.37
2018-05-13T22:52:11.292Z,18.27
2018-05-13T22:54:38.844Z,15.80
2018-05-13T22:57:06.399Z,18.33
2018-05-13T22:59:33.969Z,16.93
2018-05-13T23:02:01.507Z,16.10
2018-05-13T23:04:29.106Z,16.50
2018-05-13T23:06:56.649Z,16.97
2018-05-13T23:09:24.172Z,19.10
2018-05-13T23:11:51.735Z,18.63
2018-05-13T23:14:19.290Z,18.27
2018-05-13T23:16:46.811Z,18.27
2018-05-13T23:19:14.324Z,17.40
2018-05-13T23:21:41.906Z,18.17
2018-05-13T23:24:09.461Z,16.70
2018-05-13T23:26:36.974Z,16.67
2018-05-13T23:29:04.539Z,15.03
2018-05-13T23:31:32.866Z,16.17
2018-05-13T23:34:00.426Z,16.37
2018-05-13T23:36:28.685Z,16.70
2018-05-13T23:38:56.205Z,16.10
2018-05-13T23:41:23.757Z,17.10
2018-05-13T23:43:52.000Z,16.30
2018-05-13T23:46:20.297Z,16.30
2018-05-13T23:48:47.809Z,14.80
2018-05-13T23:51:15.318Z,16.80
2018-05-13T23:53:42.883Z,15.40
2018-05-13T23:56:10.421Z,16.80
2018-05-13T23:58:38.695Z,16.53
